SEIO2: N.Canadian R., Seiling, OK

Data processed at Tue May 21 2019 23:50


All information presented herein is the property of the government of the United States of America and may be revised or deleted at any time without prior notice.
Dissemination of this information without the expressed written consent of the Public Affairs Office, Tulsa District U.S. Army Corps of Engineers is strictly prohibited.
These data are gathered electronically and, as presented, have not undergone any form of quality control. These data are not guaranteed to be valid or correct.
Go to home page.
Go to station list.
Go to home page.

Upstream stations:

Downstream station:
Previous Day
Next Day
Current Day
    
SHEF ID:       SEIO2     North Canadian River near Seilin
STATION TYPE:  
Regulating: Stage =    11.00, Flow =     1272

               PRECIP     STAGE  STAGE(2)  RIV-FLOW  BAT-LOAD
                   in        ft        ft       cfs      volt
              Ccp-Rev   Ccp-Rev   Ccp-Rev   Ccp-Rev   Ccp-Rev
(US/Central)
05/21 00:00      0.00     10.17      ----       996     12.60
05/21 01:00      0.03     10.38      ----      1057     12.60
05/21 02:00      0.17     10.60      ----      1123     12.65
05/21 03:00      0.32     10.87      ----      1221     12.65
05/21 04:00      0.22     11.09      ----      1308     12.65
05/21 05:00      0.10     11.28      ----      1386     12.65
05/21 06:00      0.00     11.45      ----      1458     12.65
05/21 07:00      0.02     11.60      ----      1524     12.65
05/21 08:00      0.00     11.73      ----      1592     12.77
05/21 09:00      0.00     11.85      ----      1662     13.59
05/21 10:00      0.00     11.94      ----      1717     13.36
05/21 11:00      0.00     12.01      ----      1760     13.42
05/21 12:00      0.00     12.05      ----      1785     13.71
05/21 13:00      0.00     12.09      ----      1810     13.77
05/21 14:00      0.00     12.13      ----      1835     13.77
05/21 15:00      0.00     12.17      ----      1861     13.36
05/21 16:00      0.00     12.21      ----      1887     13.24
05/21 17:00      0.00     12.25      ----      1913     13.12
05/21 18:00      0.00     12.30      ----      1947     13.07
05/21 19:00      0.00     12.32      ----      1960     13.07
05/21 20:00      0.00     12.36      ----      1987     13.00
05/21 21:00      0.00     12.40      ----      2014     12.95
05/21 22:00      0.00     12.45      ----      2048     12.89
05/21 23:00      0.00     12.52      ----      2097     12.89